sensor_id;sensor_type;location;lat;lon;timestamp;temperature;humidity
62575;DHT22;53112;45.602;11.904;2023-04-24T00:00:11;25.20;46.90
62575;DHT22;53112;45.602;11.904;2023-04-24T00:02:42;25.10;46.90
62575;DHT22;53112;45.602;11.904;2023-04-24T00:05:13;25.10;46.90
62575;DHT22;53112;45.602;11.904;2023-04-24T00:07:40;25.10;46.90
62575;DHT22;53112;45.602;11.904;2023-04-24T00:10:07;25.10;46.90
62575;DHT22;53112;45.602;11.904;2023-04-24T00:12:33;25.10;46.90
62575;DHT22;53112;45.602;11.904;2023-04-24T00:15:00;25.10;46.90
62575;DHT22;53112;45.602;11.904;2023-04-24T00:17:26;25.10;46.90
62575;DHT22;53112;45.602;11.904;2023-04-24T00:19:52;25.10;46.90
62575;DHT22;53112;45.602;11.904;2023-04-24T00:22:27;25.10;46.90
62575;DHT22;53112;45.602;11.904;2023-04-24T00:24:54;25.10;46.90
62575;DHT22;53112;45.602;11.904;2023-04-24T00:27:20;25.10;46.80
62575;DHT22;53112;45.602;11.904;2023-04-24T00:29:46;25.10;46.90
62575;DHT22;53112;45.602;11.904;2023-04-24T00:32:13;25.10;46.90
62575;DHT22;53112;45.602;11.904;2023-04-24T00:34:39;25.10;46.90
62575;DHT22;53112;45.602;11.904;2023-04-24T00:37:05;25.10;46.90
62575;DHT22;53112;45.602;11.904;2023-04-24T00:39:37;25.10;46.90
62575;DHT22;53112;45.602;11.904;2023-04-24T00:42:03;25.10;46.90
62575;DHT22;53112;45.602;11.904;2023-04-24T00:44:33;25.10;46.90
62575;DHT22;53112;45.602;11.904;2023-04-24T00:47:00;25.10;46.90
62575;DHT22;53112;45.602;11.904;2023-04-24T00:49:27;25.10;46.90
62575;DHT22;53112;45.602;11.904;2023-04-24T00:51:53;25.10;46.90
62575;DHT22;53112;45.602;11.904;2023-04-24T00:54:19;25.10;46.90
62575;DHT22;53112;45.602;11.904;2023-04-24T00:56:46;25.10;46.90
62575;DHT22;53112;45.602;11.904;2023-04-24T00:59:13;25.10;46.90
62575;DHT22;53112;45.602;11.904;2023-04-24T01:01:40;25.10;47.00
62575;DHT22;53112;45.602;11.904;2023-04-24T01:04:12;25.10;47.00
62575;DHT22;53112;45.602;11.904;2023-04-24T01:06:41;25.10;47.00
62575;DHT22;53112;45.602;11.904;2023-04-24T01:09:09;25.10;47.00
62575;DHT22;53112;45.602;11.904;2023-04-24T01:11:37;25.10;47.00
62575;DHT22;53112;45.602;11.904;2023-04-24T01:14:03;25.10;47.00
62575;DHT22;53112;45.602;11.904;2023-04-24T01:16:29;25.10;47.00
62575;DHT22;53112;45.602;11.904;2023-04-24T01:18:55;25.10;47.00
62575;DHT22;53112;45.602;11.904;2023-04-24T01:21:21;25.10;47.00
62575;DHT22;53112;45.602;11.904;2023-04-24T01:23:49;25.10;47.00
62575;DHT22;53112;45.602;11.904;2023-04-24T01:26:17;25.10;47.00
62575;DHT22;53112;45.602;11.904;2023-04-24T01:28:46;25.10;47.00
62575;DHT22;53112;45.602;11.904;2023-04-24T01:31:13;25.10;47.00
62575;DHT22;53112;45.602;11.904;2023-04-24T01:33:39;25.10;47.00
62575;DHT22;53112;45.602;11.904;2023-04-24T01:36:06;25.10;47.00
62575;DHT22;53112;45.602;11.904;2023-04-24T01:38:33;25.10;47.00
62575;DHT22;53112;45.602;11.904;2023-04-24T01:40:59;25.10;46.90
62575;DHT22;53112;45.602;11.904;2023-04-24T01:43:25;25.10;46.90
62575;DHT22;53112;45.602;11.904;2023-04-24T01:45:51;25.10;47.00
62575;DHT22;53112;45.602;11.904;2023-04-24T01:48:17;25.10;47.00
62575;DHT22;53112;45.602;11.904;2023-04-24T01:50:43;25.10;47.00
62575;DHT22;53112;45.602;11.904;2023-04-24T01:53:09;25.10;47.00
62575;DHT22;53112;45.602;11.904;2023-04-24T01:55:35;25.10;47.00
62575;DHT22;53112;45.602;11.904;2023-04-24T01:58:01;25.00;46.90
62575;DHT22;53112;45.602;11.904;2023-04-24T02:00:28;25.00;47.00
62575;DHT22;53112;45.602;11.904;2023-04-24T02:02:53;25.00;46.90
62575;DHT22;53112;45.602;11.904;2023-04-24T02:05:19;25.00;47.00
62575;DHT22;53112;45.602;11.904;2023-04-24T02:07:46;25.00;47.00
62575;DHT22;53112;45.602;11.904;2023-04-24T02:10:11;25.00;47.00
62575;DHT22;53112;45.602;11.904;2023-04-24T02:12:38;25.00;47.00
62575;DHT22;53112;45.602;11.904;2023-04-24T02:15:04;25.00;47.00
62575;DHT22;53112;45.602;11.904;2023-04-24T02:17:30;25.00;47.00
62575;DHT22;53112;45.602;11.904;2023-04-24T02:19:57;25.00;47.00
62575;DHT22;53112;45.602;11.904;2023-04-24T02:22:23;25.00;47.00
62575;DHT22;53112;45.602;11.904;2023-04-24T02:24:49;25.00;47.10
62575;DHT22;53112;45.602;11.904;2023-04-24T02:27:15;25.00;47.00
62575;DHT22;53112;45.602;11.904;2023-04-24T02:29:41;25.00;47.00
62575;DHT22;53112;45.602;11.904;2023-04-24T02:32:07;25.00;47.10
62575;DHT22;53112;45.602;11.904;2023-04-24T02:34:37;25.00;47.10
62575;DHT22;53112;45.602;11.904;2023-04-24T02:37:03;25.00;47.10
62575;DHT22;53112;45.602;11.904;2023-04-24T02:39:30;25.00;47.00
62575;DHT22;53112;45.602;11.904;2023-04-24T02:41:55;25.00;47.00
62575;DHT22;53112;45.602;11.904;2023-04-24T02:44:21;24.90;47.00
62575;DHT22;53112;45.602;11.904;2023-04-24T02:46:48;24.90;47.00
62575;DHT22;53112;45.602;11.904;2023-04-24T02:49:14;25.00;47.00
62575;DHT22;53112;45.602;11.904;2023-04-24T02:51:40;25.00;47.00
62575;DHT22;53112;45.602;11.904;2023-04-24T02:54:09;24.90;46.90
62575;DHT22;53112;45.602;11.904;2023-04-24T02:56:35;25.00;46.90
62575;DHT22;53112;45.602;11.904;2023-04-24T02:59:02;24.90;46.90
62575;DHT22;53112;45.602;11.904;2023-04-24T03:01:28;25.00;46.90
62575;DHT22;53112;45.602;11.904;2023-04-24T03:03:54;24.90;46.80
62575;DHT22;53112;45.602;11.904;2023-04-24T03:06:20;24.90;46.80
62575;DHT22;53112;45.602;11.904;2023-04-24T03:08:46;24.90;46.80
62575;DHT22;53112;45.602;11.904;2023-04-24T03:11:12;25.00;46.80
62575;DHT22;53112;45.602;11.904;2023-04-24T03:13:38;24.90;46.80
62575;DHT22;53112;45.602;11.904;2023-04-24T03:16:04;24.90;46.80
62575;DHT22;53112;45.602;11.904;2023-04-24T03:18:31;24.90;46.90
62575;DHT22;53112;45.602;11.904;2023-04-24T03:20:57;24.90;46.80
62575;DHT22;53112;45.602;11.904;2023-04-24T03:23:23;24.90;46.90
62575;DHT22;53112;45.602;11.904;2023-04-24T03:25:49;24.90;46.90
62575;DHT22;53112;45.602;11.904;2023-04-24T03:28:15;24.90;46.90
62575;DHT22;53112;45.602;11.904;2023-04-24T03:30:41;24.90;46.90
62575;DHT22;53112;45.602;11.904;2023-04-24T03:33:07;24.90;46.90
62575;DHT22;53112;45.602;11.904;2023-04-24T03:35:33;24.90;46.90
62575;DHT22;53112;45.602;11.904;2023-04-24T03:37:59;24.90;46.90
62575;DHT22;53112;45.602;11.904;2023-04-24T03:40:25;24.90;46.90
62575;DHT22;53112;45.602;11.904;2023-04-24T03:42:51;24.90;46.90
62575;DHT22;53112;45.602;11.904;2023-04-24T03:45:17;24.90;46.80
62575;DHT22;53112;45.602;11.904;2023-04-24T03:47:43;24.90;46.80
62575;DHT22;53112;45.602;11.904;2023-04-24T03:50:09;24.90;46.90
62575;DHT22;53112;45.602;11.904;2023-04-24T03:52:35;24.90;46.80
62575;DHT22;53112;45.602;11.904;2023-04-24T03:55:02;24.80;46.80
62575;DHT22;53112;45.602;11.904;2023-04-24T03:57:28;24.90;46.80
62575;DHT22;53112;45.602;11.904;2023-04-24T03:59:54;24.80;46.90
62575;DHT22;53112;45.602;11.904;2023-04-24T04:02:20;24.90;46.90
62575;DHT22;53112;45.602;11.904;2023-04-24T04:04:46;24.80;46.80
62575;DHT22;53112;45.602;11.904;2023-04-24T04:07:12;24.90;46.80
62575;DHT22;53112;45.602;11.904;2023-04-24T04:09:38;24.80;46.90
62575;DHT22;53112;45.602;11.904;2023-04-24T04:12:04;24.80;46.90
62575;DHT22;53112;45.602;11.904;2023-04-24T04:14:30;24.90;46.90
62575;DHT22;53112;45.602;11.904;2023-04-24T04:16:56;24.80;46.90
62575;DHT22;53112;45.602;11.904;2023-04-24T04:19:22;24.80;46.80
62575;DHT22;53112;45.602;11.904;2023-04-24T04:21:48;24.80;46.70
62575;DHT22;53112;45.602;11.904;2023-04-24T04:24:19;24.80;46.80
62575;DHT22;53112;45.602;11.904;2023-04-24T04:26:46;24.80;46.80
62575;DHT22;53112;45.602;11.904;2023-04-24T04:29:13;24.80;46.80
62575;DHT22;53112;45.602;11.904;2023-04-24T04:31:40;24.80;46.90
62575;DHT22;53112;45.602;11.904;2023-04-24T04:34:06;24.80;47.00
62575;DHT22;53112;45.602;11.904;2023-04-24T04:36:33;24.80;47.00
62575;DHT22;53112;45.602;11.904;2023-04-24T04:39:02;24.80;47.00
62575;DHT22;53112;45.602;11.904;2023-04-24T04:41:29;24.80;47.10
62575;DHT22;53112;45.602;11.904;2023-04-24T04:43:55;24.80;47.10
62575;DHT22;53112;45.602;11.904;2023-04-24T04:46:24;24.80;47.10
62575;DHT22;53112;45.602;11.904;2023-04-24T04:48:55;24.70;47.10
62575;DHT22;53112;45.602;11.904;2023-04-24T04:51:22;24.70;47.10
62575;DHT22;53112;45.602;11.904;2023-04-24T04:53:48;24.70;47.00
62575;DHT22;53112;45.602;11.904;2023-04-24T04:56:14;24.70;47.10
62575;DHT22;53112;45.602;11.904;2023-04-24T04:58:40;24.80;47.00
62575;DHT22;53112;45.602;11.904;2023-04-24T05:01:06;24.70;47.00
62575;DHT22;53112;45.602;11.904;2023-04-24T05:03:32;24.70;47.00
62575;DHT22;53112;45.602;11.904;2023-04-24T05:05:58;24.80;47.10
62575;DHT22;53112;45.602;11.904;2023-04-24T05:08:24;24.70;47.10
62575;DHT22;53112;45.602;11.904;2023-04-24T05:10:50;24.70;47.20
62575;DHT22;53112;45.602;11.904;2023-04-24T05:13:16;24.70;47.20
62575;DHT22;53112;45.602;11.904;2023-04-24T05:15:42;24.70;47.30
62575;DHT22;53112;45.602;11.904;2023-04-24T05:18:08;24.80;47.30
62575;DHT22;53112;45.602;11.904;2023-04-24T05:20:34;24.70;47.30
62575;DHT22;53112;45.602;11.904;2023-04-24T05:23:00;24.80;47.30
62575;DHT22;53112;45.602;11.904;2023-04-24T05:25:26;24.70;47.40
62575;DHT22;53112;45.602;11.904;2023-04-24T05:27:51;24.70;47.40
62575;DHT22;53112;45.602;11.904;2023-04-24T05:30:19;24.80;47.50
62575;DHT22;53112;45.602;11.904;2023-04-24T05:32:45;24.70;47.60
62575;DHT22;53112;45.602;11.904;2023-04-24T05:35:11;24.70;47.70
62575;DHT22;53112;45.602;11.904;2023-04-24T05:37:37;24.70;47.70
62575;DHT22;53112;45.602;11.904;2023-04-24T05:40:04;24.70;47.70
62575;DHT22;53112;45.602;11.904;2023-04-24T05:42:31;24.70;47.70
62575;DHT22;53112;45.602;11.904;2023-04-24T05:44:57;24.70;47.70
62575;DHT22;53112;45.602;11.904;2023-04-24T05:47:23;24.70;47.70
62575;DHT22;53112;45.602;11.904;2023-04-24T05:49:49;24.70;47.80
62575;DHT22;53112;45.602;11.904;2023-04-24T05:52:15;24.70;47.80
62575;DHT22;53112;45.602;11.904;2023-04-24T05:54:41;24.70;47.80
62575;DHT22;53112;45.602;11.904;2023-04-24T05:57:07;24.70;47.70
62575;DHT22;53112;45.602;11.904;2023-04-24T05:59:37;24.70;47.70
62575;DHT22;53112;45.602;11.904;2023-04-24T06:02:06;24.70;47.60
62575;DHT22;53112;45.602;11.904;2023-04-24T06:04:33;24.70;47.60
62575;DHT22;53112;45.602;11.904;2023-04-24T06:06:59;24.70;47.70
62575;DHT22;53112;45.602;11.904;2023-04-24T06:09:26;24.70;47.60
62575;DHT22;53112;45.602;11.904;2023-04-24T06:11:52;24.70;47.80
62575;DHT22;53112;45.602;11.904;2023-04-24T06:14:19;24.50;48.40
62575;DHT22;53112;45.602;11.904;2023-04-24T06:16:45;24.60;48.20
62575;DHT22;53112;45.602;11.904;2023-04-24T06:19:11;24.60;48.20
62575;DHT22;53112;45.602;11.904;2023-04-24T06:21:37;24.60;48.10
62575;DHT22;53112;45.602;11.904;2023-04-24T06:24:03;24.70;48.10
62575;DHT22;53112;45.602;11.904;2023-04-24T06:26:30;24.70;48.20
62575;DHT22;53112;45.602;11.904;2023-04-24T06:28:56;24.60;48.20
62575;DHT22;53112;45.602;11.904;2023-04-24T06:31:24;24.70;48.20
62575;DHT22;53112;45.602;11.904;2023-04-24T06:33:50;24.70;48.30
62575;DHT22;53112;45.602;11.904;2023-04-24T06:36:16;24.70;48.30
62575;DHT22;53112;45.602;11.904;2023-04-24T06:38:42;24.70;48.40
62575;DHT22;53112;45.602;11.904;2023-04-24T06:41:08;24.60;48.40
62575;DHT22;53112;45.602;11.904;2023-04-24T06:43:34;24.70;48.40
62575;DHT22;53112;45.602;11.904;2023-04-24T06:46:00;24.70;48.40
62575;DHT22;53112;45.602;11.904;2023-04-24T06:48:26;24.70;48.40
62575;DHT22;53112;45.602;11.904;2023-04-24T06:50:52;24.70;48.40
62575;DHT22;53112;45.602;11.904;2023-04-24T06:53:18;24.70;48.40
62575;DHT22;53112;45.602;11.904;2023-04-24T06:55:44;24.70;48.40
62575;DHT22;53112;45.602;11.904;2023-04-24T06:58:13;24.70;48.50
62575;DHT22;53112;45.602;11.904;2023-04-24T07:00:39;24.70;48.40
62575;DHT22;53112;45.602;11.904;2023-04-24T07:03:05;24.70;48.40
62575;DHT22;53112;45.602;11.904;2023-04-24T07:05:31;24.70;48.40
62575;DHT22;53112;45.602;11.904;2023-04-24T07:07:59;24.70;48.40
62575;DHT22;53112;45.602;11.904;2023-04-24T07:10:25;24.70;48.40
62575;DHT22;53112;45.602;11.904;2023-04-24T07:12:55;24.70;48.40
62575;DHT22;53112;45.602;11.904;2023-04-24T07:15:22;24.70;48.40
62575;DHT22;53112;45.602;11.904;2023-04-24T07:17:49;24.70;48.40
62575;DHT22;53112;45.602;11.904;2023-04-24T07:20:15;24.70;48.30
62575;DHT22;53112;45.602;11.904;2023-04-24T07:22:41;24.70;48.40
62575;DHT22;53112;45.602;11.904;2023-04-24T07:25:08;24.70;48.30
62575;DHT22;53112;45.602;11.904;2023-04-24T07:27:34;24.70;48.30
62575;DHT22;53112;45.602;11.904;2023-04-24T07:30:03;24.70;48.30
62575;DHT22;53112;45.602;11.904;2023-04-24T07:32:29;24.70;48.30
62575;DHT22;53112;45.602;11.904;2023-04-24T07:34:56;24.70;48.30
62575;DHT22;53112;45.602;11.904;2023-04-24T07:37:22;24.60;48.30
62575;DHT22;53112;45.602;11.904;2023-04-24T07:39:49;24.70;48.30
62575;DHT22;53112;45.602;11.904;2023-04-24T07:42:15;24.70;48.30
62575;DHT22;53112;45.602;11.904;2023-04-24T07:44:41;24.70;48.30
62575;DHT22;53112;45.602;11.904;2023-04-24T07:47:08;24.70;48.20
62575;DHT22;53112;45.602;11.904;2023-04-24T07:49:34;24.70;48.20
62575;DHT22;53112;45.602;11.904;2023-04-24T07:52:00;24.70;47.80
62575;DHT22;53112;45.602;11.904;2023-04-24T07:54:28;24.70;47.50
62575;DHT22;53112;45.602;11.904;2023-04-24T07:56:54;24.70;47.90
62575;DHT22;53112;45.602;11.904;2023-04-24T07:59:20;24.80;47.80
62575;DHT22;53112;45.602;11.904;2023-04-24T08:01:46;24.70;47.40
62575;DHT22;53112;45.602;11.904;2023-04-24T08:04:12;24.70;47.10
62575;DHT22;53112;45.602;11.904;2023-04-24T08:06:38;24.80;46.70
62575;DHT22;53112;45.602;11.904;2023-04-24T08:09:05;24.80;46.70
62575;DHT22;53112;45.602;11.904;2023-04-24T08:11:31;24.70;46.60
62575;DHT22;53112;45.602;11.904;2023-04-24T08:13:57;24.80;46.60
62575;DHT22;53112;45.602;11.904;2023-04-24T08:16:23;24.80;46.60
62575;DHT22;53112;45.602;11.904;2023-04-24T08:18:50;24.80;46.60
62575;DHT22;53112;45.602;11.904;2023-04-24T08:21:16;24.80;46.70
62575;DHT22;53112;45.602;11.904;2023-04-24T08:23:44;24.80;47.10
62575;DHT22;53112;45.602;11.904;2023-04-24T08:26:11;24.80;47.10
62575;DHT22;53112;45.602;11.904;2023-04-24T08:28:38;24.90;46.90
62575;DHT22;53112;45.602;11.904;2023-04-24T08:31:04;24.90;46.90
62575;DHT22;53112;45.602;11.904;2023-04-24T08:33:30;24.90;46.80
62575;DHT22;53112;45.602;11.904;2023-04-24T08:36:05;24.90;46.90
62575;DHT22;53112;45.602;11.904;2023-04-24T08:38:31;24.90;46.60
62575;DHT22;53112;45.602;11.904;2023-04-24T08:40:59;24.90;46.50
62575;DHT22;53112;45.602;11.904;2023-04-24T08:43:25;24.90;46.70
62575;DHT22;53112;45.602;11.904;2023-04-24T08:45:52;24.90;46.60
62575;DHT22;53112;45.602;11.904;2023-04-24T08:48:18;24.90;46.60
62575;DHT22;53112;45.602;11.904;2023-04-24T08:50:44;24.90;46.10
62575;DHT22;53112;45.602;11.904;2023-04-24T08:53:11;24.90;46.30
62575;DHT22;53112;45.602;11.904;2023-04-24T08:55:41;24.90;46.50
62575;DHT22;53112;45.602;11.904;2023-04-24T08:58:09;25.00;46.50
62575;DHT22;53112;45.602;11.904;2023-04-24T09:00:36;25.00;46.30
62575;DHT22;53112;45.602;11.904;2023-04-24T09:03:05;25.00;46.70
62575;DHT22;53112;45.602;11.904;2023-04-24T09:05:32;25.00;46.80
62575;DHT22;53112;45.602;11.904;2023-04-24T09:07:59;25.00;46.60
62575;DHT22;53112;45.602;11.904;2023-04-24T09:10:27;25.00;46.50
62575;DHT22;53112;45.602;11.904;2023-04-24T09:12:56;25.10;46.50
62575;DHT22;53112;45.602;11.904;2023-04-24T09:15:24;25.10;46.70
62575;DHT22;53112;45.602;11.904;2023-04-24T09:17:51;25.10;46.70
62575;DHT22;53112;45.602;11.904;2023-04-24T09:20:17;25.10;46.60
62575;DHT22;53112;45.602;11.904;2023-04-24T09:22:45;25.10;46.60
62575;DHT22;53112;45.602;11.904;2023-04-24T09:25:11;25.10;46.70
62575;DHT22;53112;45.602;11.904;2023-04-24T09:27:42;25.10;46.70
62575;DHT22;53112;45.602;11.904;2023-04-24T09:30:10;25.10;46.60
62575;DHT22;53112;45.602;11.904;2023-04-24T09:32:36;25.10;46.50
62575;DHT22;53112;45.602;11.904;2023-04-24T09:35:12;25.10;46.40
62575;DHT22;53112;45.602;11.904;2023-04-24T09:37:43;25.10;46.10
62575;DHT22;53112;45.602;11.904;2023-04-24T09:40:20;25.10;46.00
62575;DHT22;53112;45.602;11.904;2023-04-24T09:42:51;25.10;45.40
62575;DHT22;53112;45.602;11.904;2023-04-24T09:45:17;25.10;45.50
62575;DHT22;53112;45.602;11.904;2023-04-24T09:47:43;25.20;45.80
62575;DHT22;53112;45.602;11.904;2023-04-24T09:50:17;25.20;45.80
62575;DHT22;53112;45.602;11.904;2023-04-24T09:52:55;25.10;45.70
62575;DHT22;53112;45.602;11.904;2023-04-24T09:55:21;25.10;45.80
62575;DHT22;53112;45.602;11.904;2023-04-24T09:57:52;25.10;46.30
62575;DHT22;53112;45.602;11.904;2023-04-24T10:00:23;25.20;46.40
62575;DHT22;53112;45.602;11.904;2023-04-24T10:02:54;25.20;46.50
62575;DHT22;53112;45.602;11.904;2023-04-24T10:05:26;25.20;46.00
62575;DHT22;53112;45.602;11.904;2023-04-24T10:07:56;25.20;45.80
62575;DHT22;53112;45.602;11.904;2023-04-24T10:10:23;25.20;45.90
62575;DHT22;53112;45.602;11.904;2023-04-24T10:12:49;25.20;45.70
62575;DHT22;53112;45.602;11.904;2023-04-24T10:15:18;25.20;45.80
62575;DHT22;53112;45.602;11.904;2023-04-24T10:17:50;25.20;45.90
62575;DHT22;53112;45.602;11.904;2023-04-24T10:20:22;25.20;45.90
62575;DHT22;53112;45.602;11.904;2023-04-24T10:22:50;25.20;46.20
62575;DHT22;53112;45.602;11.904;2023-04-24T10:25:21;25.20;46.10
62575;DHT22;53112;45.602;11.904;2023-04-24T10:27:49;25.30;46.20
62575;DHT22;53112;45.602;11.904;2023-04-24T10:30:15;25.30;46.00
62575;DHT22;53112;45.602;11.904;2023-04-24T10:32:42;25.30;46.00
62575;DHT22;53112;45.602;11.904;2023-04-24T10:35:09;25.20;46.00
62575;DHT22;53112;45.602;11.904;2023-04-24T10:37:37;25.30;46.00
62575;DHT22;53112;45.602;11.904;2023-04-24T10:40:04;25.30;45.80
62575;DHT22;53112;45.602;11.904;2023-04-24T10:42:31;25.30;45.80
62575;DHT22;53112;45.602;11.904;2023-04-24T10:45:04;25.30;46.00
62575;DHT22;53112;45.602;11.904;2023-04-24T10:47:40;25.30;45.80
62575;DHT22;53112;45.602;11.904;2023-04-24T10:50:10;25.30;45.90
62575;DHT22;53112;45.602;11.904;2023-04-24T10:52:49;25.30;45.80
62575;DHT22;53112;45.602;11.904;2023-04-24T10:55:40;25.30;45.20
62575;DHT22;53112;45.602;11.904;2023-04-24T11:00:40;25.30;45.60
62575;DHT22;53112;45.602;11.904;2023-04-24T11:03:12;25.30;45.20
62575;DHT22;53112;45.602;11.904;2023-04-24T11:08:24;25.30;45.40
62575;DHT22;53112;45.602;11.904;2023-04-24T11:10:59;25.30;45.10
62575;DHT22;53112;45.602;11.904;2023-04-24T11:14:00;25.30;45.60
62575;DHT22;53112;45.602;11.904;2023-04-24T11:19:04;25.40;45.40
62575;DHT22;53112;45.602;11.904;2023-04-24T11:21:43;25.30;45.00
62575;DHT22;53112;45.602;11.904;2023-04-24T11:26:58;25.40;45.60
62575;DHT22;53112;45.602;11.904;2023-04-24T11:35:18;25.40;45.60
62575;DHT22;53112;45.602;11.904;2023-04-24T11:37:48;25.40;45.70
62575;DHT22;53112;45.602;11.904;2023-04-24T11:40:16;25.40;45.60
62575;DHT22;53112;45.602;11.904;2023-04-24T11:42:44;25.40;45.60
62575;DHT22;53112;45.602;11.904;2023-04-24T11:45:15;25.40;45.70
62575;DHT22;53112;45.602;11.904;2023-04-24T11:47:42;25.40;45.90
62575;DHT22;53112;45.602;11.904;2023-04-24T11:50:11;25.40;45.80
62575;DHT22;53112;45.602;11.904;2023-04-24T11:52:39;25.40;45.70
62575;DHT22;53112;45.602;11.904;2023-04-24T11:57:51;25.40;46.00
62575;DHT22;53112;45.602;11.904;2023-04-24T12:00:29;25.50;46.00
62575;DHT22;53112;45.602;11.904;2023-04-24T12:08:29;25.40;45.70
62575;DHT22;53112;45.602;11.904;2023-04-24T12:10:55;25.50;45.70
62575;DHT22;53112;45.602;11.904;2023-04-24T12:13:21;25.50;45.90
62575;DHT22;53112;45.602;11.904;2023-04-24T12:15:47;25.50;45.90
62575;DHT22;53112;45.602;11.904;2023-04-24T12:18:13;25.50;45.70
62575;DHT22;53112;45.602;11.904;2023-04-24T12:20:40;25.50;45.40
62575;DHT22;53112;45.602;11.904;2023-04-24T12:23:06;25.50;45.80
62575;DHT22;53112;45.602;11.904;2023-04-24T12:25:33;25.50;45.50
62575;DHT22;53112;45.602;11.904;2023-04-24T12:30:30;25.50;45.40
62575;DHT22;53112;45.602;11.904;2023-04-24T12:32:58;25.50;45.70
62575;DHT22;53112;45.602;11.904;2023-04-24T12:35:28;25.60;45.60
62575;DHT22;53112;45.602;11.904;2023-04-24T12:37:54;25.60;45.90
62575;DHT22;53112;45.602;11.904;2023-04-24T12:40:26;25.60;45.30
62575;DHT22;53112;45.602;11.904;2023-04-24T12:42:52;25.60;45.30
62575;DHT22;53112;45.602;11.904;2023-04-24T12:45:19;25.60;45.80
62575;DHT22;53112;45.602;11.904;2023-04-24T12:47:46;25.60;45.90
62575;DHT22;53112;45.602;11.904;2023-04-24T12:50:15;25.60;45.50
62575;DHT22;53112;45.602;11.904;2023-04-24T12:52:43;25.60;45.60
62575;DHT22;53112;45.602;11.904;2023-04-24T12:55:09;25.60;45.50
62575;DHT22;53112;45.602;11.904;2023-04-24T12:57:37;25.60;45.60
62575;DHT22;53112;45.602;11.904;2023-04-24T13:00:04;25.60;45.90
62575;DHT22;53112;45.602;11.904;2023-04-24T13:02:32;25.60;45.50
62575;DHT22;53112;45.602;11.904;2023-04-24T13:04:59;25.60;45.40
62575;DHT22;53112;45.602;11.904;2023-04-24T13:07:25;25.60;45.90
62575;DHT22;53112;45.602;11.904;2023-04-24T13:09:51;25.60;45.80
62575;DHT22;53112;45.602;11.904;2023-04-24T13:12:17;25.60;45.40
62575;DHT22;53112;45.602;11.904;2023-04-24T13:14:44;25.60;45.90
62575;DHT22;53112;45.602;11.904;2023-04-24T13:17:11;25.70;45.90
62575;DHT22;53112;45.602;11.904;2023-04-24T13:19:40;25.70;45.50
62575;DHT22;53112;45.602;11.904;2023-04-24T13:22:08;25.70;45.40
62575;DHT22;53112;45.602;11.904;2023-04-24T13:24:34;25.70;45.60
62575;DHT22;53112;45.602;11.904;2023-04-24T13:27:01;25.70;45.70
62575;DHT22;53112;45.602;11.904;2023-04-24T13:29:28;25.70;45.80
62575;DHT22;53112;45.602;11.904;2023-04-24T13:31:55;25.60;45.70
62575;DHT22;53112;45.602;11.904;2023-04-24T13:34:24;25.70;45.60
62575;DHT22;53112;45.602;11.904;2023-04-24T13:36:55;25.70;45.70
62575;DHT22;53112;45.602;11.904;2023-04-24T13:39:22;25.70;45.80
62575;DHT22;53112;45.602;11.904;2023-04-24T13:41:48;25.70;46.00
62575;DHT22;53112;45.602;11.904;2023-04-24T13:44:15;25.60;46.00
62575;DHT22;53112;45.602;11.904;2023-04-24T13:46:42;25.70;45.60
62575;DHT22;53112;45.602;11.904;2023-04-24T13:49:10;25.70;45.50
62575;DHT22;53112;45.602;11.904;2023-04-24T13:51:37;25.70;45.90
62575;DHT22;53112;45.602;11.904;2023-04-24T13:54:03;25.70;45.80
62575;DHT22;53112;45.602;11.904;2023-04-24T13:56:29;25.70;45.90
62575;DHT22;53112;45.602;11.904;2023-04-24T13:58:56;25.70;45.80
62575;DHT22;53112;45.602;11.904;2023-04-24T14:01:22;25.70;46.10
62575;DHT22;53112;45.602;11.904;2023-04-24T14:03:52;25.70;46.00
62575;DHT22;53112;45.602;11.904;2023-04-24T14:06:21;25.70;46.30
62575;DHT22;53112;45.602;11.904;2023-04-24T14:08:47;25.70;46.10
62575;DHT22;53112;45.602;11.904;2023-04-24T14:11:13;25.80;46.20
62575;DHT22;53112;45.602;11.904;2023-04-24T14:13:41;25.70;46.20
62575;DHT22;53112;45.602;11.904;2023-04-24T14:16:08;25.70;46.40
62575;DHT22;53112;45.602;11.904;2023-04-24T14:18:33;25.70;46.40
62575;DHT22;53112;45.602;11.904;2023-04-24T14:20:59;25.70;46.40
62575;DHT22;53112;45.602;11.904;2023-04-24T14:23:26;25.70;46.50
62575;DHT22;53112;45.602;11.904;2023-04-24T14:25:52;25.70;46.60
62575;DHT22;53112;45.602;11.904;2023-04-24T14:28:21;25.70;46.50
62575;DHT22;53112;45.602;11.904;2023-04-24T14:30:47;25.70;46.50
62575;DHT22;53112;45.602;11.904;2023-04-24T14:33:14;25.70;46.40
62575;DHT22;53112;45.602;11.904;2023-04-24T14:35:40;25.70;46.50
62575;DHT22;53112;45.602;11.904;2023-04-24T14:38:08;25.70;46.50
62575;DHT22;53112;45.602;11.904;2023-04-24T14:40:34;25.70;46.40
62575;DHT22;53112;45.602;11.904;2023-04-24T14:43:01;25.70;45.80
62575;DHT22;53112;45.602;11.904;2023-04-24T14:45:27;25.70;46.00
62575;DHT22;53112;45.602;11.904;2023-04-24T14:47:54;25.70;46.00
62575;DHT22;53112;45.602;11.904;2023-04-24T14:50:20;25.70;46.20
62575;DHT22;53112;45.602;11.904;2023-04-24T14:52:46;25.70;46.20
62575;DHT22;53112;45.602;11.904;2023-04-24T14:55:12;25.70;46.40
62575;DHT22;53112;45.602;11.904;2023-04-24T14:57:39;25.70;46.20
62575;DHT22;53112;45.602;11.904;2023-04-24T15:00:08;25.70;46.00
62575;DHT22;53112;45.602;11.904;2023-04-24T15:02:36;25.70;45.90
62575;DHT22;53112;45.602;11.904;2023-04-24T15:05:06;25.70;46.00
62575;DHT22;53112;45.602;11.904;2023-04-24T15:07:32;25.70;45.80
62575;DHT22;53112;45.602;11.904;2023-04-24T15:09:58;25.70;45.80
62575;DHT22;53112;45.602;11.904;2023-04-24T15:12:24;25.70;45.90
62575;DHT22;53112;45.602;11.904;2023-04-24T15:14:51;25.70;46.10
62575;DHT22;53112;45.602;11.904;2023-04-24T15:17:16;25.70;46.20
62575;DHT22;53112;45.602;11.904;2023-04-24T15:19:42;25.70;45.80
62575;DHT22;53112;45.602;11.904;2023-04-24T15:22:09;25.70;45.70
62575;DHT22;53112;45.602;11.904;2023-04-24T15:24:35;25.70;45.90
62575;DHT22;53112;45.602;11.904;2023-04-24T15:27:01;25.70;45.60
62575;DHT22;53112;45.602;11.904;2023-04-24T15:29:28;25.70;45.70
62575;DHT22;53112;45.602;11.904;2023-04-24T15:31:54;25.70;46.10
62575;DHT22;53112;45.602;11.904;2023-04-24T15:34:20;25.70;45.80
62575;DHT22;53112;45.602;11.904;2023-04-24T15:36:47;25.70;45.70
62575;DHT22;53112;45.602;11.904;2023-04-24T15:39:12;25.70;45.80
62575;DHT22;53112;45.602;11.904;2023-04-24T15:41:38;25.60;46.00